Time;durP1;ratioP1;P1;durP2;ratioP2;P2;SDS_P1;SDS_P2;PMS_P1;PMS_P2;Temp;Humidity;BMP_temperature;BMP_pressure;BME280_temperature;BME280_humidity;BME280_pressure;Samples;Min_cycle;Max_cycle;Signal;HPM_P1;HPM_P2
2023/12/08 00:00:54;;;;;;;8.38;3.38;;;-6.40;99.90;;;;;;5075327;28;20036;-82
2023/12/08 00:03:20;;;;;;;9.52;3.10;;;-6.40;99.90;;;;;;5058400;28;20069;-82
2023/12/08 00:05:46;;;;;;;8.13;3.33;;;-6.30;99.90;;;;;;5057049;28;20124;-81
2023/12/08 00:08:12;;;;;;;9.52;3.28;;;-6.30;99.90;;;;;;5057733;28;20151;-81
2023/12/08 00:10:38;;;;;;;5.70;2.80;;;-6.40;99.90;;;;;;5057406;28;20063;-81
2023/12/08 00:13:03;;;;;;;7.03;3.45;;;-6.30;99.90;;;;;;5062670;28;20086;-81
2023/12/08 00:15:29;;;;;;;6.70;2.45;;;-6.40;99.90;;;;;;5073646;28;20036;-82
2023/12/08 00:17:55;;;;;;;7.95;2.78;;;-6.50;99.90;;;;;;5072661;28;20033;-82
2023/12/08 00:20:21;;;;;;;6.78;2.35;;;-6.50;99.90;;;;;;5070548;28;20032;-82
2023/12/08 00:22:46;;;;;;;6.72;2.42;;;-6.60;99.90;;;;;;5063660;28;20068;-81
2023/12/08 00:25:12;;;;;;;4.65;2.10;;;-6.50;99.90;;;;;;5068466;28;20025;-81
2023/12/08 00:27:37;;;;;;;6.78;2.95;;;-6.50;99.90;;;;;;5074247;28;20035;-81
2023/12/08 00:30:05;;;;;;;6.85;2.72;;;-6.30;99.90;;;;;;5068457;28;20389;-81
2023/12/08 00:32:31;;;;;;;4.57;2.47;;;-6.30;99.90;;;;;;5068565;28;20433;-82
2023/12/08 00:34:56;;;;;;;6.78;2.90;;;-6.20;99.90;;;;;;5070773;28;20074;-81
2023/12/08 00:37:22;;;;;;;4.22;2.33;;;-6.20;99.90;;;;;;5052582;28;20032;-81
2023/12/08 00:39:48;;;;;;;7.10;2.25;;;-6.20;99.90;;;;;;5062929;28;20032;-81
2023/12/08 00:42:13;;;;;;;6.32;2.25;;;-6.20;99.90;;;;;;5058206;28;20037;-82
2023/12/08 00:44:39;;;;;;;7.80;2.55;;;-6.20;99.90;;;;;;5066287;28;20036;-81
2023/12/08 00:47:05;;;;;;;3.85;2.20;;;-6.30;99.90;;;;;;5072760;28;20040;-81
2023/12/08 00:49:30;;;;;;;5.55;2.50;;;-6.30;99.90;;;;;;5073407;28;20028;-82
2023/12/08 00:51:56;;;;;;;7.13;2.65;;;-6.20;99.90;;;;;;5069416;28;20029;-81
2023/12/08 00:54:22;;;;;;;4.63;2.20;;;-6.20;99.90;;;;;;5069860;28;20133;-82
2023/12/08 00:56:47;;;;;;;9.05;3.35;;;-6.20;99.90;;;;;;5065616;28;20029;-81
2023/12/08 00:59:13;;;;;;;6.05;3.60;;;-6.30;99.90;;;;;;5065717;28;20505;-81
2023/12/08 01:01:39;;;;;;;5.15;2.50;;;-6.40;99.90;;;;;;5066775;28;20044;-81
2023/12/08 01:04:04;;;;;;;5.20;2.60;;;-6.40;99.90;;;;;;5066563;28;20546;-81
2023/12/08 01:06:30;;;;;;;5.85;2.50;;;-6.40;99.90;;;;;;5065077;28;20037;-80
2023/12/08 01:08:56;;;;;;;6.10;2.40;;;-6.60;99.90;;;;;;5059001;28;20079;-81
2023/12/08 01:11:21;;;;;;;4.63;2.40;;;-6.70;99.90;;;;;;5034409;28;20032;-81
2023/12/08 01:13:47;;;;;;;6.35;2.63;;;-6.70;99.90;;;;;;5068081;28;20064;-81
2023/12/08 01:16:13;;;;;;;5.43;3.13;;;-6.60;99.90;;;;;;5068902;28;20032;-81
2023/12/08 01:18:39;;;;;;;5.97;2.30;;;-6.60;99.90;;;;;;5058968;28;20599;-81
2023/12/08 01:21:04;;;;;;;6.70;2.92;;;-6.60;99.90;;;;;;5060973;28;20025;-82
2023/12/08 01:23:30;;;;;;;6.15;2.58;;;-6.60;99.90;;;;;;5076319;28;20021;-81
2023/12/08 01:25:56;;;;;;;3.60;2.40;;;-6.50;99.90;;;;;;5065322;28;20025;-82
2023/12/08 01:28:22;;;;;;;4.13;2.33;;;-6.50;99.90;;;;;;5070639;28;20025;-82
2023/12/08 01:30:47;;;;;;;6.18;2.45;;;-6.60;99.90;;;;;;5075766;28;20028;-81
2023/12/08 01:33:13;;;;;;;6.95;2.20;;;-6.50;99.90;;;;;;5071167;28;20025;-81
2023/12/08 01:35:39;;;;;;;4.25;1.95;;;-6.60;99.90;;;;;;5057113;28;20358;-82
2023/12/08 01:38:04;;;;;;;3.85;1.92;;;-6.60;99.90;;;;;;5073166;28;20036;-81
2023/12/08 01:40:30;;;;;;;5.20;2.08;;;-6.60;99.90;;;;;;5065578;28;20025;-81
2023/12/08 01:42:56;;;;;;;4.60;2.13;;;-6.50;99.90;;;;;;5057708;28;20120;-82
2023/12/08 01:45:21;;;;;;;5.72;2.03;;;-6.50;99.90;;;;;;5059985;28;20040;-82
2023/12/08 01:47:49;;;;;;;6.22;2.10;;;-6.50;99.90;;;;;;5066197;28;20031;-81
2023/12/08 01:50:17;;;;;;;6.88;2.33;;;-6.60;99.90;;;;;;5077253;28;20488;-82
2023/12/08 01:52:43;;;;;;;8.65;2.72;;;-6.60;99.90;;;;;;5076131;28;20145;-82
2023/12/08 01:55:10;;;;;;;4.80;2.47;;;-6.60;99.90;;;;;;5077001;28;20481;-81
2023/12/08 01:57:36;;;;;;;5.50;2.00;;;-6.60;99.90;;;;;;5084478;28;20024;-81
2023/12/08 02:00:02;;;;;;;3.92;1.85;;;-6.50;99.90;;;;;;5093880;28;20032;-81
2023/12/08 02:02:28;;;;;;;6.78;2.58;;;-6.60;99.90;;;;;;5081369;28;20496;-82
2023/12/08 02:04:56;;;;;;;3.72;2.45;;;-6.70;99.90;;;;;;5077542;28;20037;-82
2023/12/08 02:07:22;;;;;;;6.50;2.78;;;-6.80;99.90;;;;;;5061223;28;20041;-82
2023/12/08 02:09:48;;;;;;;7.05;2.53;;;-7.00;99.90;;;;;;5056679;28;20032;-81
2023/12/08 02:12:15;;;;;;;6.75;2.63;;;-7.20;99.90;;;;;;5045812;28;20028;-82
2023/12/08 02:14:41;;;;;;;6.25;3.50;;;-7.20;99.90;;;;;;5068124;28;20021;-81
2023/12/08 02:17:16;;;;;;;6.20;2.80;;;-7.20;99.90;;;;;;5072398;28;20032;-82
2023/12/08 02:19:43;;;;;;;5.78;2.42;;;-7.20;99.90;;;;;;5076270;28;20029;-81
2023/12/08 02:22:09;;;;;;;10.82;3.47;;;-7.20;99.90;;;;;;5074008;28;20036;-82
2023/12/08 02:24:34;;;;;;;9.15;2.90;;;-7.20;99.90;;;;;;5068922;28;20050;-82
2023/12/08 02:27:00;;;;;;;6.22;2.28;;;-7.20;99.90;;;;;;5055252;28;20112;-81
2023/12/08 02:29:26;;;;;;;9.38;2.85;;;-7.20;99.90;;;;;;5059209;28;20029;-82
2023/12/08 02:32:30;;;;;;;7.55;2.95;;;-7.10;99.90;;;;;;5060016;28;20508;-82
2023/12/08 02:35:01;;;;;;;4.07;2.30;;;-7.00;99.90;;;;;;5067052;28;20027;-82
2023/12/08 02:37:30;;;;;;;6.10;2.55;;;-7.00;99.90;;;;;;5076942;28;20465;-82
2023/12/08 02:39:57;;;;;;;5.63;2.20;;;-6.90;99.90;;;;;;5076069;28;20044;-82
2023/12/08 02:42:23;;;;;;;6.05;2.30;;;-6.90;99.90;;;;;;5071247;28;20467;-81
2023/12/08 02:44:49;;;;;;;4.97;2.17;;;-6.90;99.90;;;;;;5062165;28;20086;-82
2023/12/08 02:47:15;;;;;;;16.20;5.43;;;-7.00;99.90;;;;;;5063877;28;20032;-82
2023/12/08 02:49:40;;;;;;;11.57;4.50;;;-7.20;99.90;;;;;;5074836;28;20032;-82
2023/12/08 02:52:06;;;;;;;6.95;2.80;;;-7.30;99.90;;;;;;5062740;28;20519;-82
2023/12/08 02:54:32;;;;;;;9.07;2.67;;;-7.30;99.90;;;;;;5055087;28;20432;-82
2023/12/08 02:56:57;;;;;;;5.63;2.10;;;-7.20;99.90;;;;;;5054544;28;20036;-82
2023/12/08 02:59:23;;;;;;;6.97;2.60;;;-7.20;99.90;;;;;;5060635;28;20028;-82
2023/12/08 03:01:48;;;;;;;6.28;2.58;;;-7.10;99.90;;;;;;5074876;28;20039;-82
2023/12/08 03:04:14;;;;;;;5.15;2.85;;;-7.20;99.90;;;;;;5074715;28;20029;-81
2023/12/08 03:06:40;;;;;;;5.50;2.75;;;-7.20;99.90;;;;;;5075411;28;20082;-82
2023/12/08 03:09:05;;;;;;;7.50;2.80;;;-7.30;99.90;;;;;;5074214;28;20048;-81
2023/12/08 03:11:31;;;;;;;4.68;2.10;;;-7.30;99.90;;;;;;5057360;28;20036;-82
2023/12/08 03:13:57;;;;;;;5.40;2.15;;;-7.30;99.90;;;;;;5055946;28;20440;-82
2023/12/08 03:16:22;;;;;;;4.47;1.98;;;-7.20;99.90;;;;;;5055996;28;20051;-82
2023/12/08 03:18:48;;;;;;;5.43;2.28;;;-7.20;99.90;;;;;;5037896;28;20033;-81
2023/12/08 03:21:21;;;;;;;5.07;2.08;;;-7.10;99.90;;;;;;5053969;28;20086;-81
2023/12/08 03:23:47;;;;;;;6.20;4.15;;;-7.00;99.90;;;;;;5055822;28;20025;-82
2023/12/08 03:26:12;;;;;;;13.55;6.32;;;-7.10;99.90;;;;;;5069911;28;20035;-82
2023/12/08 03:28:38;;;;;;;15.18;5.75;;;-7.30;99.90;;;;;;5060940;28;20030;-81
2023/12/08 03:31:04;;;;;;;6.10;2.67;;;-7.60;99.90;;;;;;5061479;28;20040;-82
2023/12/08 03:33:30;;;;;;;3.75;1.60;;;-7.70;99.90;;;;;;5048416;28;20024;-81
2023/12/08 03:35:55;;;;;;;5.00;1.65;;;-7.80;99.90;;;;;;5039606;28;20022;-82
2023/12/08 03:38:21;;;;;;;5.13;2.55;;;-7.80;99.90;;;;;;5066173;28;20028;-81
2023/12/08 03:40:47;;;;;;;4.13;2.00;;;-7.70;99.90;;;;;;5061801;28;20029;-81
2023/12/08 03:43:12;;;;;;;7.07;2.00;;;-7.70;99.90;;;;;;5046240;28;20116;-81
2023/12/08 03:45:38;;;;;;;7.60;2.15;;;-7.50;99.90;;;;;;5063152;28;20040;-83
2023/12/08 03:48:04;;;;;;;4.45;2.13;;;-7.40;99.90;;;;;;5058165;28;20105;-84
2023/12/08 03:50:29;;;;;;;5.28;2.30;;;-7.30;99.90;;;;;;5063393;28;20025;-84
2023/12/08 03:52:56;;;;;;;4.35;2.42;;;-7.20;99.90;;;;;;5064696;28;20033;-83
2023/12/08 03:55:22;;;;;;;3.75;2.20;;;-7.20;99.90;;;;;;5065520;28;20028;-82
2023/12/08 03:57:48;;;;;;;5.38;2.13;;;-7.20;99.90;;;;;;5049058;28;20029;-82
2023/12/08 04:00:15;;;;;;;4.25;2.25;;;-7.20;99.90;;;;;;5065653;28;20035;-83
2023/12/08 04:02:40;;;;;;;8.90;2.40;;;-7.10;99.90;;;;;;5069997;28;20039;-83
2023/12/08 04:05:06;;;;;;;4.40;2.50;;;-7.10;99.90;;;;;;5073413;28;20092;-83
2023/12/08 04:07:32;;;;;;;5.25;1.90;;;-7.10;99.90;;;;;;5043931;28;20036;-83
2023/12/08 04:09:57;;;;;;;4.85;2.55;;;-7.20;99.90;;;;;;5049328;28;20032;-83
2023/12/08 04:12:23;;;;;;;4.18;2.10;;;-7.20;99.90;;;;;;5051869;28;20435;-83
2023/12/08 04:14:49;;;;;;;4.53;1.80;;;-7.30;99.90;;;;;;5059409;28;20037;-84
2023/12/08 04:17:14;;;;;;;6.05;3.08;;;-7.40;99.90;;;;;;5068357;28;20017;-83
2023/12/08 04:19:40;;;;;;;4.18;2.72;;;-7.40;99.90;;;;;;5062776;28;20384;-83
2023/12/08 04:22:06;;;;;;;7.88;3.53;;;-7.50;99.90;;;;;;5064015;28;20523;-84
2023/12/08 04:24:31;;;;;;;15.82;5.68;;;-7.60;99.90;;;;;;5065211;28;20114;-83
2023/12/08 04:26:57;;;;;;;9.00;3.60;;;-7.60;99.90;;;;;;5057030;28;20040;-83
2023/12/08 04:29:22;;;;;;;6.07;3.05;;;-7.50;99.90;;;;;;5060889;28;20090;-83
2023/12/08 04:31:48;;;;;;;4.13;2.30;;;-7.40;99.90;;;;;;5077607;28;20488;-84
2023/12/08 04:34:14;;;;;;;5.13;2.47;;;-7.30;99.90;;;;;;5059646;28;20520;-83
2023/12/08 04:36:39;;;;;;;5.43;2.58;;;-7.10;99.90;;;;;;5075935;28;20409;-82
2023/12/08 04:39:05;;;;;;;5.50;2.30;;;-7.00;99.90;;;;;;5059631;28;20480;-82
2023/12/08 04:41:31;;;;;;;2.97;1.63;;;-7.00;99.90;;;;;;5076835;28;20063;-83
2023/12/08 04:43:56;;;;;;;4.85;2.20;;;-7.00;99.90;;;;;;5043193;28;20062;-83
2023/12/08 04:46:22;;;;;;;4.25;2.58;;;-7.00;99.90;;;;;;5076413;28;20029;-82
2023/12/08 04:48:48;;;;;;;6.10;2.42;;;-7.10;99.90;;;;;;5076873;28;20158;-81
2023/12/08 04:51:13;;;;;;;7.82;2.97;;;-7.10;99.90;;;;;;5077672;28;20041;-81
2023/12/08 04:53:39;;;;;;;5.72;2.40;;;-7.10;99.90;;;;;;5078141;28;20025;-81
2023/12/08 04:56:05;;;;;;;5.57;2.50;;;-7.10;99.90;;;;;;5076638;28;20025;-82
2023/12/08 04:58:31;;;;;;;4.88;2.33;;;-7.00;99.90;;;;;;5076775;28;20442;-81
2023/12/08 05:00:57;;;;;;;5.65;2.38;;;-7.00;99.90;;;;;;5077716;28;20044;-80
2023/12/08 05:03:23;;;;;;;4.68;2.67;;;-6.90;99.90;;;;;;5086334;28;20028;-81
2023/12/08 05:05:49;;;;;;;6.10;2.63;;;-6.80;99.90;;;;;;5089287;28;20024;-81
2023/12/08 05:08:15;;;;;;;6.85;2.15;;;-6.70;99.90;;;;;;5078999;28;20025;-82
2023/12/08 05:10:40;;;;;;;3.88;2.28;;;-6.70;99.90;;;;;;5078746;28;20029;-81
2023/12/08 05:13:06;;;;;;;3.83;2.30;;;-6.70;99.90;;;;;;5078983;28;20043;-82
2023/12/08 05:15:32;;;;;;;4.55;1.80;;;-6.70;99.90;;;;;;5077809;28;20037;-82
2023/12/08 05:17:58;;;;;;;3.28;1.63;;;-6.70;99.90;;;;;;5076869;28;20063;-82
2023/12/08 05:20:23;;;;;;;3.00;1.35;;;-6.70;99.90;;;;;;5067518;28;20413;-81
2023/12/08 05:22:49;;;;;;;3.83;1.55;;;-6.70;99.90;;;;;;5070083;28;20029;-81
2023/12/08 05:25:15;;;;;;;4.20;1.75;;;-6.70;99.90;;;;;;5040768;28;20124;-81
2023/12/08 05:27:40;;;;;;;6.45;2.58;;;-6.60;99.90;;;;;;5040297;28;20033;-81
2023/12/08 05:30:07;;;;;;;3.67;2.05;;;-6.50;99.90;;;;;;5068421;28;20389;-81
2023/12/08 05:32:32;;;;;;;4.88;2.10;;;-6.50;99.90;;;;;;5065106;28;20039;-83
2023/12/08 05:34:58;;;;;;;4.68;2.40;;;-6.50;99.90;;;;;;5045933;28;20029;-84
2023/12/08 05:37:23;;;;;;;6.13;3.25;;;-6.50;99.90;;;;;;5065667;28;20032;-82
2023/12/08 05:39:50;;;;;;;4.15;2.10;;;-6.50;99.90;;;;;;5049332;28;20031;-82
2023/12/08 05:42:16;;;;;;;5.63;2.33;;;-6.40;99.90;;;;;;5044883;28;20025;-81
2023/12/08 05:44:42;;;;;;;7.10;2.40;;;-6.40;99.90;;;;;;5067037;28;20032;-82
2023/12/08 05:47:08;;;;;;;3.88;1.80;;;-6.40;99.90;;;;;;5050416;28;20106;-83
2023/12/08 05:49:34;;;;;;;4.53;2.10;;;-6.30;99.90;;;;;;5077748;28;20055;-81
2023/12/08 05:51:59;;;;;;;3.05;1.70;;;-6.30;99.90;;;;;;5075982;28;20024;-81
2023/12/08 05:54:25;;;;;;;7.05;2.28;;;-6.30;99.90;;;;;;5076384;28;20450;-80
2023/12/08 05:56:51;;;;;;;5.63;2.63;;;-6.30;99.90;;;;;;5077644;28;20507;-81
2023/12/08 05:59:16;;;;;;;6.57;3.25;;;-6.40;99.90;;;;;;5075801;28;20473;-81
2023/12/08 06:01:42;;;;;;;6.72;2.40;;;-6.40;99.90;;;;;;5065730;28;20025;-81
2023/12/08 06:04:08;;;;;;;4.68;2.38;;;-6.50;99.90;;;;;;5050485;28;20025;-81
2023/12/08 06:06:33;;;;;;;4.03;2.15;;;-6.40;99.90;;;;;;5064750;28;20037;-82
2023/12/08 06:08:59;;;;;;;6.43;2.38;;;-6.40;99.90;;;;;;5061703;28;20032;-82
2023/12/08 06:11:25;;;;;;;5.93;2.88;;;-6.40;99.90;;;;;;5069794;28;20036;-81
2023/12/08 06:13:50;;;;;;;6.57;3.80;;;-6.30;99.90;;;;;;5067175;28;20033;-82
2023/12/08 06:16:16;;;;;;;6.03;3.50;;;-6.30;99.90;;;;;;5042302;28;20025;-82
2023/12/08 06:18:41;;;;;;;9.15;3.08;;;-6.30;99.90;;;;;;5045594;28;20032;-82
2023/12/08 06:21:07;;;;;;;7.68;2.60;;;-6.20;99.90;;;;;;5043697;28;20481;-81
2023/12/08 06:23:34;;;;;;;6.95;2.67;;;-6.20;99.90;;;;;;5039784;28;20040;-81
2023/12/08 06:25:59;;;;;;;7.57;2.83;;;-6.10;99.90;;;;;;5056041;28;20021;-81
2023/12/08 06:28:25;;;;;;;4.75;2.22;;;-6.10;99.90;;;;;;5057424;28;20029;-82
2023/12/08 06:30:51;;;;;;;7.10;2.67;;;-6.10;99.90;;;;;;5071549;28;20422;-78
2023/12/08 06:33:16;;;;;;;6.22;2.33;;;-6.00;99.90;;;;;;5075652;28;20028;-78
2023/12/08 06:35:42;;;;;;;15.63;5.93;;;-6.00;99.90;;;;;;5076394;28;20024;-81
2023/12/08 06:38:08;;;;;;;10.15;5.05;;;-5.90;99.90;;;;;;5075617;28;20028;-81
2023/12/08 06:40:33;;;;;;;9.98;4.80;;;-5.90;99.90;;;;;;5075257;28;20029;-82
2023/12/08 06:42:59;;;;;;;7.07;3.20;;;-5.90;99.90;;;;;;5076569;28;20021;-81
2023/12/08 06:45:25;;;;;;;12.57;5.72;;;-5.80;99.90;;;;;;5074671;28;20396;-78
2023/12/08 06:47:50;;;;;;;16.95;10.85;;;-5.80;99.90;;;;;;5075222;28;20424;-79
2023/12/08 06:50:16;;;;;;;13.23;7.05;;;-5.70;99.90;;;;;;5073185;28;20119;-80
2023/12/08 06:52:42;;;;;;;4.97;3.10;;;-5.70;99.90;;;;;;5075947;28;20029;-83
2023/12/08 06:55:08;;;;;;;6.82;3.25;;;-5.70;99.90;;;;;;5075002;28;20016;-84
2023/12/08 06:57:34;;;;;;;4.82;2.60;;;-5.60;99.90;;;;;;5074758;28;20034;-83
2023/12/08 06:59:59;;;;;;;4.80;2.55;;;-5.60;99.90;;;;;;5057948;28;20064;-83
2023/12/08 07:02:25;;;;;;;8.93;2.83;;;-5.60;99.90;;;;;;5074297;28;20020;-81
2023/12/08 07:04:50;;;;;;;6.05;3.33;;;-5.60;99.90;;;;;;5058125;28;20481;-81
2023/12/08 07:07:16;;;;;;;6.05;2.95;;;-5.60;99.90;;;;;;5073857;28;20366;-79
2023/12/08 07:09:42;;;;;;;7.57;3.10;;;-5.50;99.90;;;;;;5074515;28;20362;-79
2023/12/08 07:12:07;;;;;;;5.95;3.00;;;-5.50;99.90;;;;;;5073007;28;20521;-79
2023/12/08 07:14:33;;;;;;;5.75;2.50;;;-5.40;99.90;;;;;;5076164;28;20141;-81
2023/12/08 07:16:59;;;;;;;7.63;3.28;;;-5.40;99.90;;;;;;5075840;28;20024;-84
2023/12/08 07:19:25;;;;;;;6.80;3.03;;;-5.30;99.90;;;;;;5074869;28;20028;-84
2023/12/08 07:21:50;;;;;;;6.80;3.28;;;-5.30;99.90;;;;;;5073883;28;20542;-81
2023/12/08 07:24:16;;;;;;;6.55;3.55;;;-5.30;99.90;;;;;;5074787;28;20127;-84
2023/12/08 07:26:42;;;;;;;5.95;3.17;;;-5.30;99.90;;;;;;5041318;28;20032;-84
2023/12/08 07:29:09;;;;;;;6.72;2.85;;;-5.30;99.90;;;;;;5074313;28;20032;-84
2023/12/08 07:31:35;;;;;;;5.00;2.45;;;-5.30;99.90;;;;;;5055091;28;20033;-85
2023/12/08 07:34:01;;;;;;;8.90;4.28;;;-5.30;99.90;;;;;;5042901;28;20166;-84
2023/12/08 07:36:27;;;;;;;10.50;4.22;;;-5.30;99.90;;;;;;5041723;28;20041;-84
2023/12/08 07:38:53;;;;;;;6.43;3.70;;;-5.30;99.90;;;;;;5075056;28;20161;-83
2023/12/08 07:41:18;;;;;;;11.13;4.05;;;-5.30;99.90;;;;;;5074067;28;20055;-80
2023/12/08 07:43:45;;;;;;;8.35;4.00;;;-5.30;99.90;;;;;;5073292;28;20392;-79
2023/12/08 07:46:10;;;;;;;8.73;4.75;;;-5.20;99.90;;;;;;5041355;28;20036;-83
2023/12/08 07:48:36;;;;;;;9.95;4.63;;;-5.20;99.90;;;;;;5040317;28;20020;-79
2023/12/08 07:51:02;;;;;;;13.10;6.72;;;-5.10;99.90;;;;;;5073440;28;20425;-80
2023/12/08 07:53:27;;;;;;;11.52;6.13;;;-5.00;99.90;;;;;;5073900;28;20110;-80
2023/12/08 07:55:53;;;;;;;9.43;6.00;;;-4.90;99.90;;;;;;5040842;28;20063;-84
2023/12/08 07:58:19;;;;;;;11.07;6.00;;;-4.80;99.90;;;;;;5075161;28;20028;-80
2023/12/08 08:00:44;;;;;;;9.65;5.75;;;-4.70;99.90;;;;;;5058787;28;20099;-84
2023/12/08 08:03:10;;;;;;;12.43;6.60;;;-4.70;99.90;;;;;;5065042;28;20047;-80
2023/12/08 08:05:36;;;;;;;8.25;4.40;;;-4.60;99.90;;;;;;5094117;28;20052;-82
2023/12/08 08:08:04;;;;;;;10.35;6.15;;;-4.50;99.90;;;;;;5049278;28;20039;-85
2023/12/08 08:10:30;;;;;;;12.88;7.32;;;-4.40;99.90;;;;;;5047081;28;20035;-84
2023/12/08 08:12:55;;;;;;;14.43;8.07;;;-4.40;99.90;;;;;;5062585;28;20040;-83
2023/12/08 08:15:21;;;;;;;12.40;5.80;;;-4.30;99.90;;;;;;5079209;28;20025;-82
2023/12/08 08:17:47;;;;;;;8.52;5.20;;;-4.30;99.90;;;;;;5077766;28;20392;-84
2023/12/08 08:20:12;;;;;;;12.32;7.10;;;-4.20;99.90;;;;;;5033117;28;20493;-84
2023/12/08 08:22:38;;;;;;;13.80;6.03;;;-4.20;99.90;;;;;;5058274;28;20025;-80
2023/12/08 08:25:04;;;;;;;9.73;5.18;;;-4.10;99.90;;;;;;5041017;28;20481;-82
2023/12/08 08:27:31;;;;;;;9.55;5.15;;;-4.10;99.90;;;;;;5059250;28;20025;-84
2023/12/08 08:29:57;;;;;;;10.80;6.05;;;-4.10;99.90;;;;;;5030754;28;20507;-80
2023/12/08 08:32:23;;;;;;;9.85;5.55;;;-4.10;99.90;;;;;;5057965;28;20033;-82
2023/12/08 08:34:49;;;;;;;7.47;3.97;;;-4.00;99.90;;;;;;5069688;28;20119;-80
2023/12/08 08:37:14;;;;;;;8.52;4.30;;;-4.00;99.90;;;;;;5077834;28;20067;-82
2023/12/08 08:39:40;;;;;;;10.18;6.43;;;-3.90;99.90;;;;;;5060551;28;20027;-84
2023/12/08 08:42:06;;;;;;;12.98;6.38;;;-3.90;99.90;;;;;;5062055;28;20032;-82
2023/12/08 08:44:33;;;;;;;16.75;10.52;;;-3.80;99.90;;;;;;5060009;28;20031;-82
2023/12/08 08:46:58;;;;;;;25.63;12.60;;;-3.70;99.90;;;;;;5078864;28;20032;-83
2023/12/08 08:49:24;;;;;;;20.02;11.10;;;-3.70;99.90;;;;;;5078582;28;20024;-80
2023/12/08 08:51:50;;;;;;;19.60;11.20;;;-3.60;99.90;;;;;;5075886;28;20024;-79
2023/12/08 08:54:16;;;;;;;18.80;10.68;;;-3.50;99.90;;;;;;5075938;28;20480;-80
2023/12/08 08:56:42;;;;;;;20.33;10.10;;;-3.40;99.90;;;;;;5076966;28;20473;-82
2023/12/08 08:59:08;;;;;;;16.30;8.48;;;-3.40;99.90;;;;;;5076972;28;20036;-82
2023/12/08 09:01:34;;;;;;;14.55;8.07;;;-3.30;99.90;;;;;;5076794;28;20036;-80
2023/12/08 09:03:59;;;;;;;13.82;8.07;;;-3.20;99.90;;;;;;5072223;28;20031;-82
2023/12/08 09:06:25;;;;;;;14.98;7.70;;;-3.10;99.90;;;;;;5075544;28;20020;-84
2023/12/08 09:08:51;;;;;;;12.63;7.47;;;-3.10;99.90;;;;;;5076364;28;20035;-83
2023/12/08 09:11:17;;;;;;;13.30;7.15;;;-3.00;99.90;;;;;;5075923;28;20037;-84
2023/12/08 09:13:42;;;;;;;12.98;7.82;;;-3.00;99.90;;;;;;5061602;28;20123;-84
2023/12/08 09:16:08;;;;;;;11.85;7.10;;;-2.90;99.90;;;;;;5059376;28;20027;-83
2023/12/08 09:18:34;;;;;;;10.75;6.57;;;-2.90;99.90;;;;;;5069951;28;20051;-83
2023/12/08 09:21:00;;;;;;;11.88;6.15;;;-2.80;99.90;;;;;;5070905;28;20029;-83
2023/12/08 09:23:25;;;;;;;10.25;5.22;;;-2.70;99.90;;;;;;5074318;28;20144;-83
2023/12/08 09:25:53;;;;;;;8.40;4.93;;;-2.70;99.90;;;;;;5074700;28;20028;-83
2023/12/08 09:28:20;;;;;;;11.52;5.00;;;-2.70;99.90;;;;;;5075417;28;20032;-83
2023/12/08 09:30:46;;;;;;;9.70;5.10;;;-2.70;99.90;;;;;;5073511;28;20036;-82
2023/12/08 09:33:12;;;;;;;10.95;5.40;;;-2.70;99.90;;;;;;5072277;28;20029;-83
2023/12/08 09:35:38;;;;;;;9.30;5.35;;;-2.60;99.90;;;;;;5058503;28;20033;-83
2023/12/08 09:38:04;;;;;;;7.70;4.00;;;-2.60;99.90;;;;;;5066475;28;20119;-83
2023/12/08 09:40:32;;;;;;;8.00;4.10;;;-2.60;99.90;;;;;;5063189;28;20028;-82
2023/12/08 09:43:14;;;;;;;13.95;7.68;;;-2.50;99.90;;;;;;5060967;28;20052;-83
2023/12/08 09:45:42;;;;;;;9.63;5.10;;;-2.50;99.90;;;;;;5065305;28;20167;-83
2023/12/08 09:48:10;;;;;;;11.88;5.07;;;-2.50;99.90;;;;;;5067544;28;20112;-83
2023/12/08 09:50:36;;;;;;;14.48;5.80;;;-2.50;99.90;;;;;;5076711;28;20028;-82
2023/12/08 09:53:04;;;;;;;11.15;5.07;;;-2.50;99.90;;;;;;5066268;28;20033;-83
2023/12/08 09:55:30;;;;;;;12.00;5.75;;;-2.40;99.90;;;;;;5055409;28;20029;-83
2023/12/08 09:57:57;;;;;;;12.55;6.00;;;-2.40;99.90;;;;;;5057772;28;20029;-84
2023/12/08 10:00:23;;;;;;;9.23;5.07;;;-2.30;99.90;;;;;;5064489;28;20028;-85
2023/12/08 10:02:49;;;;;;;9.80;5.70;;;-2.20;99.90;;;;;;5059382;28;20576;-85
2023/12/08 10:05:15;;;;;;;12.38;5.82;;;-2.20;99.90;;;;;;5075966;28;20086;-81
2023/12/08 10:07:43;;;;;;;11.23;5.35;;;-2.20;99.90;;;;;;5078125;28;20025;-82
2023/12/08 10:10:10;;;;;;;11.13;5.00;;;-2.20;99.90;;;;;;5077318;28;20158;-82
2023/12/08 10:12:37;;;;;;;10.65;5.57;;;-2.10;99.90;;;;;;5077738;28;20032;-81
2023/12/08 10:15:08;;;;;;;9.07;5.32;;;-2.00;99.90;;;;;;5076652;28;20046;-82
2023/12/08 10:17:33;;;;;;;12.95;5.38;;;-1.90;99.90;;;;;;5076027;28;20044;-83
2023/12/08 10:20:12;;;;;;;14.43;6.72;;;-1.80;99.90;;;;;;5056960;28;20473;-81
2023/12/08 10:22:48;;;;;;;14.05;6.22;;;-1.70;99.90;;;;;;5053841;28;20485;-81
2023/12/08 10:25:16;;;;;;;15.55;6.30;;;-1.70;99.90;;;;;;5054382;28;20033;-80
2023/12/08 10:27:42;;;;;;;12.68;7.18;;;-1.70;99.90;;;;;;5056781;28;20032;-81
2023/12/08 10:30:09;;;;;;;14.63;7.80;;;-1.60;99.90;;;;;;5071871;28;20071;-81
2023/12/08 10:32:34;;;;;;;15.30;8.52;;;-1.60;99.90;;;;;;5080052;28;20032;-84
2023/12/08 10:35:00;;;;;;;15.95;7.95;;;-1.60;99.90;;;;;;5079366;28;20074;-83
2023/12/08 10:37:26;;;;;;;14.48;7.47;;;-1.60;99.90;;;;;;5080584;28;20033;-83
2023/12/08 10:39:52;;;;;;;12.77;6.50;;;-1.60;99.90;;;;;;5047941;28;20032;-82
2023/12/08 10:42:18;;;;;;;14.40;6.60;;;-1.60;99.90;;;;;;5026348;28;20029;-83
2023/12/08 10:44:47;;;;;;;15.02;7.22;;;-1.60;99.90;;;;;;5061129;28;20410;-83
2023/12/08 10:47:12;;;;;;;17.30;7.65;;;-1.50;99.90;;;;;;5038049;28;20033;-82
2023/12/08 10:49:39;;;;;;;13.50;7.03;;;-1.50;99.90;;;;;;5053236;28;20086;-82
2023/12/08 10:52:06;;;;;;;18.17;6.05;;;-1.50;99.90;;;;;;5036723;28;20059;-81
2023/12/08 10:54:32;;;;;;;11.13;5.40;;;-1.50;99.90;;;;;;5057253;28;20031;-80
2023/12/08 10:56:58;;;;;;;9.93;5.13;;;-1.50;99.90;;;;;;5073434;28;20059;-82
2023/12/08 10:59:31;;;;;;;9.15;5.07;;;-1.40;99.90;;;;;;5056892;28;20094;-81
2023/12/08 11:02:00;;;;;;;10.88;5.50;;;-1.40;99.90;;;;;;5074704;28;20016;-82
2023/12/08 11:04:28;;;;;;;9.75;5.53;;;-1.40;99.90;;;;;;5073473;28;20028;-82
2023/12/08 11:07:01;;;;;;;9.70;5.30;;;-1.30;99.90;;;;;;5072921;28;20497;-81
2023/12/08 11:09:30;;;;;;;8.13;4.60;;;-1.20;99.90;;;;;;5073651;28;20088;-81
2023/12/08 11:11:58;;;;;;;19.83;9.05;;;-1.20;99.90;;;;;;5074137;28;20473;-81
2023/12/08 11:14:48;;;;;;;15.95;8.43;;;-1.00;99.90;;;;;;5071656;28;20024;-82
2023/12/08 11:17:24;;;;;;;16.43;7.80;;;-1.00;99.90;;;;;;5063496;28;20086;-82
2023/12/08 11:19:50;;;;;;;13.80;7.28;;;-1.00;99.90;;;;;;5068335;28;20023;-82
2023/12/08 11:22:17;;;;;;;12.00;6.85;;;-1.00;99.90;;;;;;5044314;28;20032;-82
2023/12/08 11:24:43;;;;;;;17.88;9.27;;;-1.00;99.90;;;;;;5043876;28;20066;-82
2023/12/08 11:27:36;;;;;;;14.73;8.57;;;-1.00;99.90;;;;;;5077452;28;20033;-82
2023/12/08 11:30:10;;;;;;;21.38;10.07;;;-1.00;99.90;;;;;;5076908;28;20025;-82
2023/12/08 11:32:49;;;;;;;19.98;10.45;;;-0.90;99.90;;;;;;5076761;28;20115;-82
2023/12/08 11:35:17;;;;;;;19.33;10.43;;;-0.90;99.90;;;;;;5077777;28;20480;-83
2023/12/08 11:37:45;;;;;;;19.65;10.30;;;-0.90;99.90;;;;;;5080869;28;20055;-80
2023/12/08 11:40:11;;;;;;;16.63;9.05;;;-0.90;99.90;;;;;;5079174;28;20090;-81
2023/12/08 11:42:43;;;;;;;17.85;9.63;;;-0.90;99.90;;;;;;5061191;28;20033;-81
2023/12/08 11:45:12;;;;;;;30.00;12.00;;;-0.90;99.90;;;;;;5077965;28;20021;-81
2023/12/08 11:47:38;;;;;;;17.77;8.88;;;-0.80;99.90;;;;;;5079657;28;20029;-79
2023/12/08 11:50:06;;;;;;;15.70;8.77;;;-0.70;99.90;;;;;;5082526;28;20029;-82
2023/12/08 11:52:34;;;;;;;16.67;8.43;;;-0.70;99.90;;;;;;5081655;28;20036;-81
2023/12/08 11:55:23;;;;;;;16.38;8.57;;;-0.70;99.90;;;;;;5081962;28;20472;-82
2023/12/08 11:58:01;;;;;;;17.02;8.73;;;-0.70;99.90;;;;;;5083525;28;20025;-83
2023/12/08 12:00:28;;;;;;;18.63;8.73;;;-0.70;99.90;;;;;;5080234;28;20020;-84
2023/12/08 12:02:57;;;;;;;18.55;9.27;;;-0.60;99.90;;;;;;5078452;28;20465;-81
2023/12/08 12:05:24;;;;;;;21.27;9.63;;;-0.60;99.90;;;;;;5077722;28;20496;-82
2023/12/08 12:07:53;;;;;;;19.48;9.57;;;-0.50;99.90;;;;;;5059980;28;20033;-82
2023/12/08 12:10:27;;;;;;;21.13;10.30;;;-0.50;99.90;;;;;;5080021;28;20032;-85
2023/12/08 12:12:56;;;;;;;24.77;10.77;;;-0.40;99.90;;;;;;5079303;28;20126;-84
2023/12/08 12:15:25;;;;;;;24.70;11.60;;;-0.30;99.90;;;;;;5079091;28;20035;-84
2023/12/08 12:17:53;;;;;;;24.27;11.73;;;-0.20;99.90;;;;;;5081006;28;20016;-84
2023/12/08 12:20:19;;;;;;;22.95;11.43;;;-0.10;99.90;;;;;;5063314;28;20085;-84
2023/12/08 12:22:45;;;;;;;19.77;10.98;;;0.00;99.90;;;;;;5078517;28;20078;-85
2023/12/08 12:25:11;;;;;;;21.77;11.45;;;0.10;99.90;;;;;;5079018;28;20032;-84
2023/12/08 12:27:46;;;;;;;23.52;11.73;;;0.10;99.90;;;;;;5062329;28;20488;-85
2023/12/08 12:30:12;;;;;;;25.20;12.07;;;0.20;99.90;;;;;;5079477;28;20374;-84
2023/12/08 12:32:38;;;;;;;24.15;12.55;;;0.20;99.90;;;;;;5062437;28;20032;-84
2023/12/08 12:35:05;;;;;;;28.77;14.68;;;0.20;99.90;;;;;;5080208;28;20366;-85
2023/12/08 12:37:31;;;;;;;23.20;12.63;;;0.30;99.90;;;;;;5062477;28;20568;-85
2023/12/08 12:39:57;;;;;;;22.92;12.32;;;0.30;99.90;;;;;;5079276;28;20059;-84